createdAt,value
2018-10-07T00:00:46.522Z,9.63
2018-10-07T00:03:15.827Z,8.93
2018-10-07T00:05:45.110Z,8.50
2018-10-07T00:08:14.095Z,9.37
2018-10-07T00:10:43.062Z,8.50
2018-10-07T00:13:11.917Z,9.73
2018-10-07T00:15:41.597Z,8.33
2018-10-07T00:18:10.203Z,7.07
2018-10-07T00:20:38.892Z,7.60
2018-10-07T00:23:08.468Z,7.83
2018-10-07T00:25:37.352Z,10.77
2018-10-07T00:28:06.688Z,12.83
2018-10-07T00:30:35.087Z,10.37
2018-10-07T00:33:03.851Z,12.90
2018-10-07T00:35:32.499Z,10.57
2018-10-07T00:38:01.016Z,15.27
2018-10-07T00:40:29.446Z,13.47
2018-10-07T00:42:58.034Z,12.53
2018-10-07T00:45:27.044Z,11.77
2018-10-07T00:47:55.283Z,15.43
2018-10-07T00:50:23.935Z,14.40
2018-10-07T00:52:52.694Z,11.33
2018-10-07T00:55:21.175Z,10.90
2018-10-07T00:57:50.331Z,8.53
2018-10-07T01:00:19.488Z,10.00
2018-10-07T01:02:49.283Z,9.97
2018-10-07T01:05:17.596Z,9.50
2018-10-07T01:07:46.077Z,10.03
2018-10-07T01:10:16.280Z,9.20
2018-10-07T01:12:45.773Z,10.83
2018-10-07T01:15:14.187Z,9.37
2018-10-07T01:17:42.656Z,8.17
2018-10-07T01:20:10.961Z,9.70
2018-10-07T01:22:40.514Z,9.67
2018-10-07T01:25:08.956Z,8.30
2018-10-07T01:27:37.214Z,8.93
2018-10-07T01:30:07.031Z,10.00
2018-10-07T01:32:35.305Z,6.70
2018-10-07T01:35:05.230Z,9.90
2018-10-07T01:37:35.440Z,9.23
2018-10-07T01:40:03.847Z,7.70
2018-10-07T01:42:33.271Z,8.33
2018-10-07T01:45:03.044Z,9.97
2018-10-07T01:47:31.684Z,9.07
2018-10-07T01:50:00.384Z,8.07
2018-10-07T01:52:30.176Z,8.00
2018-10-07T01:54:59.334Z,9.77
2018-10-07T01:57:28.457Z,6.57
2018-10-07T01:59:57.423Z,8.17
2018-10-07T02:02:26.266Z,8.90
2018-10-07T02:04:55.015Z,8.17
2018-10-07T02:07:24.054Z,7.10
2018-10-07T02:09:52.918Z,9.23
2018-10-07T02:12:22.287Z,8.17
2018-10-07T02:14:50.928Z,10.93
2018-10-07T02:17:19.222Z,5.73
2018-10-07T02:19:48.027Z,6.70
2018-10-07T02:22:18.063Z,8.33
2018-10-07T02:24:47.373Z,6.20
2018-10-07T02:27:15.646Z,8.87
2018-10-07T02:29:44.136Z,7.20
2018-10-07T02:32:12.817Z,6.63
2018-10-07T02:34:41.126Z,8.23
2018-10-07T02:37:09.794Z,5.97
2018-10-07T02:39:38.457Z,7.30
2018-10-07T02:42:07.582Z,6.60
2018-10-07T02:44:36.226Z,6.17
2018-10-07T02:47:04.565Z,6.37
2018-10-07T02:49:32.991Z,8.70
2018-10-07T02:52:02.937Z,6.37
2018-10-07T02:54:31.427Z,7.17
2018-10-07T02:57:00.014Z,6.43
2018-10-07T02:59:28.610Z,6.07
2018-10-07T03:01:56.943Z,7.40
2018-10-07T03:04:25.696Z,8.53
2018-10-07T03:06:54.456Z,5.10
2018-10-07T03:09:22.904Z,6.07
2018-10-07T03:11:51.920Z,7.07
2018-10-07T03:14:20.586Z,6.23
2018-10-07T03:16:48.873Z,6.80
2018-10-07T03:19:17.550Z,5.47
2018-10-07T03:21:46.048Z,6.60
2018-10-07T03:24:14.276Z,6.33
2018-10-07T03:26:42.861Z,6.77
2018-10-07T03:29:12.638Z,7.07
2018-10-07T03:31:42.123Z,8.63
2018-10-07T03:34:10.647Z,6.80
2018-10-07T03:36:39.331Z,8.23
2018-10-07T03:39:08.463Z,5.03
2018-10-07T03:41:38.192Z,7.03
2018-10-07T03:44:06.608Z,6.27
2018-10-07T03:46:35.230Z,6.07
2018-10-07T03:49:04.094Z,6.80
2018-10-07T03:51:32.706Z,7.87
2018-10-07T03:54:01.035Z,6.93
2018-10-07T03:56:29.692Z,6.90
2018-10-07T03:58:58.568Z,6.00
2018-10-07T04:01:27.295Z,7.53
2018-10-07T04:03:55.973Z,5.90
2018-10-07T04:06:24.981Z,5.77
2018-10-07T04:08:53.425Z,7.30
2018-10-07T04:11:22.874Z,6.00
2018-10-07T04:13:51.526Z,6.67
2018-10-07T04:16:20.815Z,9.30
2018-10-07T04:18:49.170Z,10.47
2018-10-07T04:21:17.615Z,9.97
2018-10-07T04:23:45.883Z,7.83
2018-10-07T04:26:14.318Z,9.67
2018-10-07T04:28:42.591Z,8.23
2018-10-07T04:31:11.292Z,8.73
2018-10-07T04:33:39.874Z,8.03
2018-10-07T04:36:09.103Z,6.13
2018-10-07T04:38:38.196Z,6.13
2018-10-07T04:41:07.065Z,9.13
2018-10-07T04:43:36.632Z,8.20
2018-10-07T04:46:06.199Z,6.43
2018-10-07T04:48:34.918Z,8.07
2018-10-07T04:51:03.468Z,7.93
2018-10-07T04:53:33.026Z,5.70
2018-10-07T04:56:01.834Z,6.77
2018-10-07T05:01:03.814Z,5.13
2018-10-07T05:03:32.468Z,8.87
2018-10-07T05:06:01.659Z,11.33
2018-10-07T05:08:30.375Z,7.80
2018-10-07T05:11:02.649Z,8.87
2018-10-07T05:13:51.254Z,8.63
2018-10-07T05:16:27.246Z,7.57
2018-10-07T05:18:56.264Z,9.97
2018-10-07T05:21:25.442Z,8.97
2018-10-07T05:23:54.281Z,8.80
2018-10-07T05:26:24.131Z,9.03
2018-10-07T05:28:52.484Z,6.47
2018-10-07T05:31:20.704Z,6.60
2018-10-07T05:33:49.064Z,16.20
2018-10-07T05:36:17.289Z,9.67
2018-10-07T05:38:45.588Z,8.83
2018-10-07T05:41:13.854Z,6.60
2018-10-07T05:43:42.505Z,7.60
2018-10-07T05:46:11.530Z,7.63
2018-10-07T05:48:40.692Z,7.67
2018-10-07T05:51:08.928Z,6.83
2018-10-07T05:53:37.174Z,7.20
2018-10-07T05:56:05.369Z,9.33
2018-10-07T05:58:33.915Z,6.93
2018-10-07T06:01:10.119Z,7.53
2018-10-07T06:03:43.714Z,6.63
2018-10-07T06:08:45.655Z,7.30
2018-10-07T06:11:13.847Z,5.83
2018-10-07T06:13:42.148Z,7.57
2018-10-07T06:16:10.410Z,6.17
2018-10-07T06:18:38.754Z,6.00
2018-10-07T06:21:06.950Z,5.43
2018-10-07T06:23:35.658Z,7.30
2018-10-07T06:26:03.852Z,4.20
2018-10-07T06:28:32.071Z,4.87
2018-10-07T06:31:00.247Z,4.50
2018-10-07T06:33:28.645Z,4.50
2018-10-07T06:35:56.886Z,5.13
2018-10-07T06:38:25.227Z,4.40
2018-10-07T06:40:53.539Z,4.20
2018-10-07T06:43:21.960Z,4.33
2018-10-07T06:45:51.226Z,4.77
2018-10-07T06:48:19.659Z,6.57
2018-10-07T06:50:47.987Z,6.60
2018-10-07T06:53:16.378Z,5.53
2018-10-07T06:55:44.766Z,5.60
2018-10-07T06:58:13.153Z,5.00
2018-10-07T07:00:41.402Z,5.30
2018-10-07T07:03:09.723Z,7.63
2018-10-07T07:05:38.287Z,4.60
2018-10-07T07:08:06.620Z,5.50
2018-10-07T07:10:34.796Z,5.50
2018-10-07T07:13:03.273Z,8.40
2018-10-07T07:15:32.427Z,23.20
2018-10-07T07:18:00.982Z,25.77
2018-10-07T07:20:29.907Z,18.30
2018-10-07T07:22:58.218Z,14.73
2018-10-07T07:25:26.514Z,10.70
2018-10-07T07:27:54.809Z,8.30
2018-10-07T07:30:23.294Z,7.90
2018-10-07T07:32:51.548Z,7.67
2018-10-07T07:35:19.853Z,5.63
2018-10-07T07:37:48.052Z,6.73
2018-10-07T07:40:16.244Z,8.83
2018-10-07T07:42:44.602Z,5.70
2018-10-07T07:45:12.834Z,7.10
2018-10-07T07:47:41.102Z,5.00
2018-10-07T07:50:09.388Z,6.37
2018-10-07T07:52:37.788Z,5.77
2018-10-07T07:55:06.319Z,7.60
2018-10-07T07:57:34.742Z,5.87
2018-10-07T08:00:03.218Z,7.93
2018-10-07T08:02:31.442Z,5.40
2018-10-07T08:05:00.098Z,3.97
2018-10-07T08:07:28.472Z,5.03
2018-10-07T08:09:56.763Z,12.40
2018-10-07T08:12:25.108Z,5.00
2018-10-07T08:14:53.383Z,5.40
2018-10-07T08:17:21.949Z,6.03
2018-10-07T08:19:50.310Z,6.97
2018-10-07T08:22:19.535Z,7.50
2018-10-07T08:24:48.476Z,5.37
2018-10-07T08:27:17.176Z,6.47
2018-10-07T08:29:45.442Z,5.40
2018-10-07T08:32:13.721Z,5.70
2018-10-07T08:34:41.971Z,5.53
2018-10-07T08:37:10.294Z,5.67
2018-10-07T08:39:38.592Z,7.07
2018-10-07T08:42:06.922Z,5.87
2018-10-07T08:44:35.203Z,7.00
2018-10-07T08:47:03.801Z,8.20
2018-10-07T08:49:32.722Z,5.87
2018-10-07T08:52:01.426Z,5.03
2018-10-07T08:54:29.763Z,6.80
2018-10-07T08:56:58.034Z,7.53
2018-10-07T08:59:26.435Z,6.27
2018-10-07T09:01:54.675Z,5.83
2018-10-07T09:04:22.943Z,6.20
2018-10-07T09:06:52.064Z,5.63
2018-10-07T09:09:20.346Z,8.57
2018-10-07T09:11:48.599Z,5.97
2018-10-07T09:14:17.050Z,5.47
2018-10-07T09:16:45.442Z,9.13
2018-10-07T09:19:13.782Z,7.17
2018-10-07T09:21:42.074Z,5.67
2018-10-07T09:24:10.726Z,7.40
2018-10-07T09:26:38.928Z,6.77
2018-10-07T09:29:07.208Z,6.23
2018-10-07T09:31:35.560Z,7.13
2018-10-07T09:34:04.000Z,6.10
2018-10-07T09:36:32.437Z,6.27
2018-10-07T09:39:00.704Z,6.37
2018-10-07T09:41:29.149Z,6.50
2018-10-07T09:43:57.490Z,6.50
2018-10-07T09:46:26.013Z,5.43
2018-10-07T09:48:54.821Z,7.13
2018-10-07T09:51:23.109Z,6.90
2018-10-07T09:53:51.326Z,5.27
2018-10-07T09:56:19.556Z,7.27
2018-10-07T09:58:47.923Z,5.70
2018-10-07T10:01:16.149Z,6.80
2018-10-07T10:03:44.516Z,5.33
2018-10-07T10:06:12.763Z,5.40
2018-10-07T10:08:41.236Z,6.67
2018-10-07T10:11:09.431Z,6.83
2018-10-07T10:13:37.837Z,5.17
2018-10-07T10:16:06.497Z,6.27
2018-10-07T10:18:47.779Z,4.70
2018-10-07T10:21:23.549Z,5.17
2018-10-07T10:23:59.188Z,5.47
2018-10-07T10:26:33.641Z,6.47
2018-10-07T10:29:15.686Z,6.43
2018-10-07T10:31:53.476Z,8.33
2018-10-07T10:36:37.536Z,6.23
2018-10-07T10:39:16.910Z,6.13
2018-10-07T10:41:57.222Z,7.07
2018-10-07T10:44:31.987Z,5.87
2018-10-07T10:47:38.332Z,7.47
2018-10-07T10:50:17.986Z,4.53
2018-10-07T10:52:53.067Z,4.37
2018-10-07T10:55:31.951Z,6.73
2018-10-07T10:58:03.235Z,5.20
2018-10-07T11:00:43.263Z,4.60
2018-10-07T11:04:21.861Z,5.67
2018-10-07T11:07:01.025Z,7.43
2018-10-07T11:11:44.037Z,7.40
2018-10-07T11:15:51.605Z,6.70
2018-10-07T11:18:46.624Z,6.30
2018-10-07T11:21:35.101Z,4.57
2018-10-07T11:24:14.522Z,8.23
2018-10-07T11:26:53.314Z,5.47
2018-10-07T11:29:27.281Z,6.37
2018-10-07T11:32:18.468Z,5.97
2018-10-07T11:34:55.472Z,6.13
2018-10-07T11:37:35.309Z,5.53
2018-10-07T11:40:15.961Z,7.13
2018-10-07T11:42:49.671Z,6.73
2018-10-07T11:45:37.888Z,7.73
2018-10-07T11:49:12.332Z,5.93
2018-10-07T11:52:06.506Z,5.93
2018-10-07T11:55:01.002Z,7.30
2018-10-07T11:57:29.553Z,6.73
2018-10-07T11:59:58.560Z,6.27
2018-10-07T12:02:27.030Z,6.50
2018-10-07T12:04:55.797Z,7.33
2018-10-07T12:07:24.852Z,6.40
2018-10-07T12:09:53.839Z,6.30
2018-10-07T12:12:22.123Z,5.60
2018-10-07T12:14:50.424Z,8.30
2018-10-07T12:17:18.706Z,8.07
2018-10-07T12:19:46.898Z,7.47
2018-10-07T12:22:15.183Z,5.83
2018-10-07T12:24:43.352Z,6.30
2018-10-07T12:27:12.280Z,4.67
2018-10-07T12:29:40.685Z,5.73
2018-10-07T12:32:09.503Z,5.27
2018-10-07T12:34:37.931Z,6.10
2018-10-07T12:37:06.250Z,5.23
2018-10-07T12:39:34.853Z,9.00
2018-10-07T12:42:03.472Z,11.20
2018-10-07T12:44:31.704Z,7.00
2018-10-07T12:47:00.064Z,5.13
2018-10-07T12:49:28.241Z,5.00
2018-10-07T12:51:56.641Z,7.60
2018-10-07T12:54:24.920Z,7.57
2018-10-07T12:56:53.116Z,5.80
2018-10-07T12:59:21.430Z,7.13
2018-10-07T13:01:49.692Z,5.83
2018-10-07T13:04:17.868Z,5.73
2018-10-07T13:06:46.874Z,6.60
2018-10-07T13:09:15.418Z,6.07
2018-10-07T13:11:43.960Z,5.50
2018-10-07T13:14:12.280Z,5.57
2018-10-07T13:16:40.868Z,6.63
2018-10-07T13:19:09.571Z,9.93
2018-10-07T13:21:37.760Z,6.63
2018-10-07T13:24:05.994Z,5.97
2018-10-07T13:26:34.254Z,6.10
2018-10-07T13:29:02.724Z,8.87
2018-10-07T13:31:31.107Z,8.57
2018-10-07T13:33:59.277Z,5.63
2018-10-07T13:36:27.794Z,8.97
2018-10-07T13:38:57.056Z,7.03
2018-10-07T13:41:25.331Z,7.80
2018-10-07T13:43:53.622Z,6.33
2018-10-07T13:46:22.062Z,7.17
2018-10-07T13:48:50.323Z,10.23
2018-10-07T13:51:18.511Z,7.27
2018-10-07T13:53:47.396Z,6.53
2018-10-07T13:56:16.132Z,5.77
2018-10-07T13:58:44.476Z,14.60
2018-10-07T14:01:12.754Z,7.20
2018-10-07T14:03:42.113Z,6.77
2018-10-07T14:06:10.291Z,5.47
2018-10-07T14:08:38.794Z,6.37
2018-10-07T14:11:07.198Z,5.73
2018-10-07T14:13:35.506Z,6.40
2018-10-07T14:16:03.811Z,6.90
2018-10-07T14:18:32.239Z,5.37
2018-10-07T14:21:00.528Z,7.73
2018-10-07T14:23:28.707Z,6.53
2018-10-07T14:25:56.934Z,5.90
2018-10-07T14:28:25.471Z,5.27
2018-10-07T14:30:54.531Z,6.33
2018-10-07T14:33:22.874Z,9.30
2018-10-07T14:35:51.115Z,7.23
2018-10-07T14:38:19.352Z,6.10
2018-10-07T14:40:47.669Z,6.17
2018-10-07T14:43:15.939Z,6.97
2018-10-07T14:45:45.102Z,6.57
2018-10-07T14:48:13.354Z,6.57
2018-10-07T14:50:41.662Z,5.50
2018-10-07T14:53:09.842Z,6.57
2018-10-07T14:55:38.112Z,6.50
2018-10-07T14:58:06.666Z,5.83
2018-10-07T15:00:34.926Z,7.37
2018-10-07T15:03:03.114Z,6.50
2018-10-07T15:05:31.762Z,8.37
2018-10-07T15:07:59.951Z,6.87
2018-10-07T15:10:28.205Z,6.70
2018-10-07T15:12:56.384Z,7.87
2018-10-07T15:15:24.587Z,6.83
2018-10-07T15:17:52.805Z,5.10
2018-10-07T15:20:20.979Z,7.27
2018-10-07T15:22:49.234Z,10.03
2018-10-07T15:25:17.423Z,8.53
2018-10-07T15:27:46.329Z,6.47
2018-10-07T15:30:15.112Z,7.13
2018-10-07T15:32:43.554Z,6.70
2018-10-07T15:35:12.311Z,8.33
2018-10-07T15:37:40.603Z,7.23
2018-10-07T15:40:09.034Z,7.27
2018-10-07T15:42:37.311Z,5.73
2018-10-07T15:45:05.742Z,5.90
2018-10-07T15:47:34.039Z,8.73
2018-10-07T15:50:02.400Z,5.77
2018-10-07T15:52:30.876Z,8.63
2018-10-07T15:54:59.154Z,6.63
2018-10-07T15:57:27.423Z,7.10
2018-10-07T15:59:55.713Z,6.60
2018-10-07T16:02:23.896Z,4.87
2018-10-07T16:04:52.468Z,6.67
2018-10-07T16:07:20.670Z,7.13
2018-10-07T16:09:49.014Z,5.63
2018-10-07T16:12:17.204Z,5.77
2018-10-07T16:14:45.470Z,5.67
2018-10-07T16:17:13.745Z,6.13
2018-10-07T16:19:42.009Z,8.33
2018-10-07T16:22:10.377Z,6.90
2018-10-07T16:24:38.739Z,7.00
2018-10-07T16:27:07.045Z,9.73
2018-10-07T16:29:35.243Z,18.70
2018-10-07T16:32:03.494Z,9.03
2018-10-07T16:34:31.753Z,7.30
2018-10-07T16:37:00.096Z,6.47
2018-10-07T16:39:28.318Z,7.73
2018-10-07T16:41:56.655Z,10.63
2018-10-07T16:44:24.879Z,7.40
2018-10-07T16:46:53.061Z,6.10
2018-10-07T16:49:21.326Z,8.07
2018-10-07T16:51:50.034Z,8.37
2018-10-07T16:54:18.251Z,11.77
2018-10-07T16:56:46.558Z,13.40
2018-10-07T16:59:14.786Z,22.67
2018-10-07T17:01:43.200Z,21.23
2018-10-07T17:04:11.695Z,9.03
2018-10-07T17:06:39.959Z,14.90
2018-10-07T17:09:09.265Z,11.33
2018-10-07T17:11:37.583Z,9.17
2018-10-07T17:14:05.983Z,9.63
2018-10-07T17:16:34.608Z,7.53
2018-10-07T17:19:03.567Z,6.97
2018-10-07T17:21:32.217Z,10.70
2018-10-07T17:24:00.821Z,7.83
2018-10-07T17:26:29.396Z,11.77
2018-10-07T17:28:57.801Z,12.43
2018-10-07T17:31:26.547Z,9.40
2018-10-07T17:33:55.070Z,11.30
2018-10-07T17:36:24.279Z,12.10
2018-10-07T17:38:52.601Z,20.80
2018-10-07T17:41:21.199Z,17.53
2018-10-07T17:43:50.277Z,17.20
2018-10-07T17:46:19.821Z,13.40
2018-10-07T17:48:48.628Z,14.30
2018-10-07T17:51:17.660Z,11.47
2018-10-07T17:53:45.969Z,9.77
2018-10-07T17:56:14.414Z,8.57
2018-10-07T17:58:43.086Z,9.40
2018-10-07T18:01:11.631Z,14.20
2018-10-07T18:03:39.852Z,43.60
2018-10-07T18:06:08.128Z,54.43
2018-10-07T18:08:37.088Z,44.33
2018-10-07T18:11:07.131Z,30.53
2018-10-07T18:13:35.600Z,19.90
2018-10-07T18:16:04.148Z,18.23
2018-10-07T18:18:33.075Z,13.97
2018-10-07T18:21:01.451Z,16.77
2018-10-07T18:23:30.047Z,18.13
2018-10-07T18:25:58.463Z,20.53
2018-10-07T18:28:27.833Z,21.70
2018-10-07T18:30:57.955Z,20.53
2018-10-07T18:33:27.112Z,17.43
2018-10-07T18:35:55.952Z,14.57
2018-10-07T18:38:25.009Z,11.07
2018-10-07T18:40:54.159Z,10.00
2018-10-07T18:43:23.243Z,9.33
2018-10-07T18:45:51.817Z,8.60
2018-10-07T18:48:20.231Z,9.10
2018-10-07T18:50:48.794Z,11.37
2018-10-07T18:53:17.102Z,13.67
2018-10-07T18:55:45.642Z,10.40
2018-10-07T18:58:14.232Z,9.73
2018-10-07T19:00:43.107Z,9.10
2018-10-07T19:03:11.567Z,9.70
2018-10-07T19:05:40.587Z,12.37
2018-10-07T19:08:08.964Z,11.47
2018-10-07T19:10:37.494Z,9.17
2018-10-07T19:13:06.317Z,9.93
2018-10-07T19:15:34.854Z,9.27
2018-10-07T19:18:04.791Z,9.40
2018-10-07T19:20:33.182Z,8.10
2018-10-07T19:23:01.737Z,8.77
2018-10-07T19:25:30.382Z,8.60
2018-10-07T19:27:58.810Z,8.77
2018-10-07T19:30:27.422Z,9.73
2018-10-07T19:32:56.545Z,11.33
2018-10-07T19:35:25.209Z,19.50
2018-10-07T19:37:54.131Z,30.37
2018-10-07T19:40:22.988Z,18.73
2018-10-07T19:42:54.124Z,17.73
2018-10-07T19:45:22.978Z,8.80
2018-10-07T19:47:51.930Z,8.27
2018-10-07T19:50:20.976Z,9.87
2018-10-07T19:52:50.490Z,11.53
2018-10-07T19:55:19.291Z,10.37
2018-10-07T19:57:49.425Z,10.53
2018-10-07T20:00:18.111Z,9.47
2018-10-07T20:02:47.297Z,14.17
2018-10-07T20:05:16.875Z,13.27
2018-10-07T20:07:45.897Z,13.60
2018-10-07T20:10:14.573Z,17.70
2018-10-07T20:12:43.475Z,15.00
2018-10-07T20:15:12.740Z,18.50
2018-10-07T20:17:42.520Z,15.70
2018-10-07T20:20:11.494Z,16.40
2018-10-07T20:22:41.318Z,16.30
2018-10-07T20:25:10.823Z,14.30
2018-10-07T20:27:40.151Z,20.20
2018-10-07T20:30:09.238Z,18.73
2018-10-07T20:32:37.984Z,16.00
2018-10-07T20:35:07.096Z,14.80
2018-10-07T20:37:43.384Z,16.77
2018-10-07T20:40:12.488Z,14.37
2018-10-07T20:42:42.516Z,15.20
2018-10-07T20:45:12.654Z,14.60
2018-10-07T20:47:41.428Z,11.67
2018-10-07T20:50:10.678Z,13.73
2018-10-07T20:52:40.041Z,14.73
2018-10-07T20:55:09.100Z,14.30
2018-10-07T20:57:38.381Z,14.17
2018-10-07T21:00:07.057Z,12.73
2018-10-07T21:02:36.491Z,13.37
2018-10-07T21:05:05.674Z,12.60
2018-10-07T21:07:34.591Z,13.87
2018-10-07T21:10:02.913Z,12.83
2018-10-07T21:12:32.320Z,15.30
2018-10-07T21:15:00.571Z,13.60
2018-10-07T21:17:29.129Z,13.00
2018-10-07T21:19:58.002Z,12.40
2018-10-07T21:22:26.390Z,16.63
2018-10-07T21:24:54.827Z,14.40
2018-10-07T21:27:23.099Z,17.20
2018-10-07T21:29:52.129Z,17.27
2018-10-07T21:32:20.386Z,13.67
2018-10-07T21:34:48.915Z,15.57
2018-10-07T21:37:17.821Z,13.13
2018-10-07T21:39:47.730Z,13.70
2018-10-07T21:42:16.159Z,15.17
2018-10-07T21:44:44.397Z,14.50
2018-10-07T21:47:13.420Z,13.63
2018-10-07T21:49:42.016Z,14.33
2018-10-07T21:52:10.923Z,13.33
2018-10-07T21:54:40.038Z,14.53
2018-10-07T21:57:08.743Z,13.47
2018-10-07T21:59:38.058Z,14.60
2018-10-07T22:02:07.073Z,13.60
2018-10-07T22:04:35.674Z,16.07
2018-10-07T22:07:03.959Z,15.97
2018-10-07T22:09:32.363Z,14.83
2018-10-07T22:12:01.139Z,16.93
2018-10-07T22:14:29.988Z,18.27
2018-10-07T22:16:58.514Z,12.87
2018-10-07T22:19:26.739Z,14.37
2018-10-07T22:21:55.522Z,16.63
2018-10-07T22:24:24.088Z,19.23
2018-10-07T22:26:53.076Z,18.60
2018-10-07T22:29:21.712Z,18.83
2018-10-07T22:31:50.734Z,14.77
2018-10-07T22:34:19.615Z,14.07
2018-10-07T22:36:48.474Z,14.77
2018-10-07T22:39:17.215Z,18.37
2018-10-07T22:41:45.513Z,14.43
2018-10-07T22:44:14.995Z,14.17
2018-10-07T22:46:43.683Z,13.97
2018-10-07T22:49:12.955Z,13.87
2018-10-07T22:51:41.807Z,14.10
2018-10-07T22:54:10.643Z,14.10
2018-10-07T22:56:39.079Z,12.47
2018-10-07T22:59:07.437Z,13.60
2018-10-07T23:01:36.250Z,13.87
2018-10-07T23:04:04.562Z,15.77
2018-10-07T23:06:32.796Z,14.87
2018-10-07T23:09:01.023Z,15.13
2018-10-07T23:11:29.764Z,14.63
2018-10-07T23:13:58.084Z,15.37
2018-10-07T23:16:26.547Z,16.03
2018-10-07T23:18:54.818Z,20.33
2018-10-07T23:21:23.143Z,18.07
2018-10-07T23:23:51.686Z,20.57
2018-10-07T23:26:20.068Z,19.30
2018-10-07T23:28:48.757Z,17.27
2018-10-07T23:31:17.014Z,15.27
2018-10-07T23:33:45.679Z,14.30
2018-10-07T23:36:15.215Z,16.27
2018-10-07T23:38:43.942Z,18.20
2018-10-07T23:41:13.163Z,15.30
2018-10-07T23:43:42.752Z,17.67
2018-10-07T23:46:12.006Z,16.77
2018-10-07T23:48:41.593Z,16.83
2018-10-07T23:51:10.196Z,19.97
2018-10-07T23:53:39.643Z,17.10
2018-10-07T23:56:08.872Z,20.10
2018-10-07T23:58:37.709Z,24.77
